Saint-Joseph-De-Beauce, Canada
Current Conditions -  °F | °C
As of 9:00 PM on Thursday 20 Nov 2014 (Local Time) from CYQB Reporting Station
Rain Showers Rain Showers  
Wind Chill: 16°   Ceiling: 2600
Heat Index: 25°   Visibility: 10mi
Dew Point: 14°   Wind: 8mph
Humidity: 64%   Direction: 200°SSW
Pressure: 29.69"   Gusts: NA
Location:  46.3°N, 70.87°W
Report Text: CYQB 210200Z 20007KT 10SM VCSH BKN026 OVC055 M04/M10 A2969 RMK SC5SC3 SLP060
Loading
Personal Weather Stations






























Interactive Weather Map New forecast layout! Learn more

10-Day Weather Forecast

Advertisements
Track Severe Weather on mobile